createdAt,value
2019-03-18T00:01:01.326Z,19.27
2019-03-18T00:03:32.123Z,24.57
2019-03-18T00:06:02.870Z,20.57
2019-03-18T00:08:33.837Z,16.93
2019-03-18T00:11:04.541Z,15.80
2019-03-18T00:13:35.327Z,17.87
2019-03-18T00:16:06.326Z,12.83
2019-03-18T00:18:37.075Z,7.37
2019-03-18T00:21:07.822Z,4.13
2019-03-18T00:23:38.748Z,6.83
2019-03-18T00:26:09.473Z,3.27
2019-03-18T00:28:40.160Z,2.80
2019-03-18T00:31:10.947Z,2.03
2019-03-18T00:33:41.670Z,5.57
2019-03-18T00:36:12.514Z,1.47
2019-03-18T00:38:43.304Z,2.37
2019-03-18T00:41:14.734Z,1.73
2019-03-18T00:43:45.301Z,1.50
2019-03-18T00:46:15.807Z,2.27
2019-03-18T00:48:46.584Z,2.57
2019-03-18T00:51:17.107Z,3.60
2019-03-18T00:53:47.721Z,3.47
2019-03-18T00:56:18.181Z,6.33
2019-03-18T00:58:48.781Z,5.97
2019-03-18T01:01:19.351Z,2.73
2019-03-18T01:03:50.454Z,4.90
2019-03-18T01:06:21.476Z,2.27
2019-03-18T01:08:51.947Z,3.17
2019-03-18T01:11:22.559Z,2.67
2019-03-18T01:13:53.162Z,4.30
2019-03-18T01:16:23.653Z,2.13
2019-03-18T01:18:54.105Z,1.70
2019-03-18T01:21:24.656Z,2.23
2019-03-18T01:23:55.123Z,2.97
2019-03-18T01:26:25.570Z,2.50
2019-03-18T01:28:56.165Z,2.30
2019-03-18T01:31:26.813Z,1.63
2019-03-18T01:33:57.327Z,3.90
2019-03-18T01:36:28.060Z,2.83
2019-03-18T01:38:58.617Z,2.30
2019-03-18T01:41:29.160Z,1.73
2019-03-18T01:43:59.682Z,2.50
2019-03-18T01:46:30.257Z,1.77
2019-03-18T01:49:00.959Z,1.37
2019-03-18T01:51:31.483Z,1.73
2019-03-18T01:54:01.912Z,6.67
2019-03-18T01:56:32.590Z,2.47
2019-03-18T01:59:03.163Z,2.63
2019-03-18T02:01:33.693Z,1.70
2019-03-18T02:04:04.278Z,4.63
2019-03-18T02:06:34.842Z,5.47
2019-03-18T02:09:06.946Z,7.77
2019-03-18T02:11:37.522Z,6.03
2019-03-18T02:14:07.965Z,10.83
2019-03-18T02:16:38.447Z,6.73
2019-03-18T02:19:09.059Z,4.73
2019-03-18T02:21:39.500Z,6.47
2019-03-18T02:24:09.929Z,5.23
2019-03-18T02:26:40.437Z,6.43
2019-03-18T02:29:10.917Z,6.73
2019-03-18T02:31:41.442Z,7.03
2019-03-18T02:34:13.006Z,5.53
2019-03-18T02:36:43.457Z,4.17
2019-03-18T02:39:13.976Z,2.43
2019-03-18T02:41:44.572Z,4.93
2019-03-18T02:44:15.083Z,3.93
2019-03-18T02:46:45.568Z,4.00
2019-03-18T02:49:16.060Z,3.00
2019-03-18T02:51:46.604Z,3.47
2019-03-18T02:54:17.093Z,5.47
2019-03-18T02:56:47.625Z,4.73
2019-03-18T02:59:19.088Z,7.10
2019-03-18T03:01:49.531Z,10.63
2019-03-18T03:04:19.996Z,9.23
2019-03-18T03:06:50.598Z,8.00
2019-03-18T03:09:21.188Z,12.33
2019-03-18T03:11:51.816Z,13.13
2019-03-18T03:14:22.339Z,14.23
2019-03-18T03:16:52.749Z,20.30
2019-03-18T03:19:23.223Z,18.67
2019-03-18T03:21:53.767Z,13.87
2019-03-18T03:24:24.273Z,17.87
2019-03-18T03:26:54.799Z,10.03
2019-03-18T03:29:25.335Z,9.87
2019-03-18T03:31:55.837Z,7.37
2019-03-18T03:34:26.243Z,8.90
2019-03-18T03:36:57.047Z,5.60
2019-03-18T03:39:27.457Z,7.13
2019-03-18T03:41:58.070Z,4.40
2019-03-18T03:44:29.503Z,4.47
2019-03-18T03:47:00.012Z,3.73
2019-03-18T03:49:30.491Z,3.73
2019-03-18T03:52:01.028Z,4.30
2019-03-18T03:54:31.545Z,4.93
2019-03-18T03:57:02.053Z,5.00
2019-03-18T03:59:32.789Z,4.60
2019-03-18T04:02:03.320Z,3.70
2019-03-18T04:04:33.728Z,4.53
2019-03-18T04:07:04.237Z,7.03
2019-03-18T04:09:34.665Z,6.23
2019-03-18T04:12:05.126Z,7.33
2019-03-18T04:14:35.556Z,7.50
2019-03-18T04:17:07.359Z,10.53
2019-03-18T04:19:38.041Z,7.50
2019-03-18T04:22:08.504Z,8.53
2019-03-18T04:24:38.959Z,7.63
2019-03-18T04:27:09.735Z,8.30
2019-03-18T04:29:40.296Z,9.43
2019-03-18T04:32:10.914Z,8.73
2019-03-18T04:34:41.418Z,9.23
2019-03-18T04:37:11.887Z,8.30
2019-03-18T04:39:42.502Z,9.40
2019-03-18T04:42:13.011Z,8.77
2019-03-18T04:44:43.650Z,15.23
2019-03-18T04:47:14.801Z,11.40
2019-03-18T04:49:45.321Z,9.80
2019-03-18T04:52:15.879Z,12.00
2019-03-18T04:54:46.422Z,9.40
2019-03-18T04:57:16.964Z,7.93
2019-03-18T04:59:47.418Z,9.13
2019-03-18T05:02:18.020Z,8.87
2019-03-18T05:04:48.600Z,8.13
2019-03-18T05:07:19.238Z,7.10
2019-03-18T05:09:49.815Z,7.60
2019-03-18T05:12:20.446Z,8.20
2019-03-18T05:14:51.000Z,11.23
2019-03-18T05:17:26.703Z,10.37
2019-03-18T05:19:53.618Z,7.50
2019-03-18T05:22:24.124Z,7.03
2019-03-18T05:24:54.633Z,7.80
2019-03-18T05:27:25.238Z,11.70
2019-03-18T05:29:55.630Z,8.43
2019-03-18T05:32:26.163Z,8.63
2019-03-18T05:34:56.697Z,9.00
2019-03-18T05:37:27.170Z,7.40
2019-03-18T05:39:57.631Z,6.77
2019-03-18T05:42:28.203Z,7.43
2019-03-18T05:44:58.749Z,9.57
2019-03-18T05:47:38.708Z,6.50
2019-03-18T05:50:01.571Z,7.23
2019-03-18T05:52:32.122Z,11.30
2019-03-18T05:55:02.746Z,7.30
2019-03-18T05:57:33.397Z,9.20
2019-03-18T06:00:04.391Z,11.47
2019-03-18T06:02:35.026Z,10.00
2019-03-18T06:05:06.842Z,8.10
2019-03-18T06:07:37.465Z,8.30
2019-03-18T06:10:09.008Z,6.70
2019-03-18T06:12:39.541Z,5.77
2019-03-18T06:15:10.326Z,7.53
2019-03-18T06:17:51.791Z,8.10
2019-03-18T06:20:13.165Z,7.90
2019-03-18T06:22:43.688Z,10.10
2019-03-18T06:25:14.506Z,6.87
2019-03-18T06:27:45.309Z,6.43
2019-03-18T06:30:15.823Z,8.87
2019-03-18T06:32:46.330Z,8.93
2019-03-18T06:35:16.943Z,8.13
2019-03-18T06:37:47.482Z,8.30
2019-03-18T06:40:19.026Z,9.03
2019-03-18T06:42:49.584Z,7.97
2019-03-18T06:45:20.132Z,7.53
2019-03-18T06:47:51.063Z,9.33
2019-03-18T06:50:23.175Z,14.00
2019-03-18T06:52:54.620Z,12.53
2019-03-18T06:55:25.222Z,8.93
2019-03-18T06:57:55.757Z,13.63
2019-03-18T07:00:26.375Z,11.50
2019-03-18T07:02:56.926Z,14.37
2019-03-18T07:05:27.477Z,10.33
2019-03-18T07:07:57.970Z,10.33
2019-03-18T07:10:28.625Z,8.73
2019-03-18T07:12:59.151Z,12.27
2019-03-18T07:15:29.772Z,8.33
2019-03-18T07:18:00.197Z,8.07
2019-03-18T07:20:30.685Z,8.70
2019-03-18T07:23:02.999Z,9.83
2019-03-18T07:25:33.633Z,9.13
2019-03-18T07:28:04.173Z,13.07
2019-03-18T07:30:34.819Z,9.47
2019-03-18T07:33:05.390Z,7.33
2019-03-18T07:35:35.906Z,6.10
2019-03-18T07:38:06.410Z,6.03
2019-03-18T07:40:38.493Z,7.40
2019-03-18T07:43:09.016Z,5.63
2019-03-18T07:45:39.607Z,6.87
2019-03-18T07:48:12.470Z,10.60
2019-03-18T07:50:42.464Z,11.60
2019-03-18T07:53:12.976Z,6.57
2019-03-18T07:55:43.468Z,9.40
2019-03-18T07:58:14.124Z,5.90
2019-03-18T08:00:44.809Z,5.73
2019-03-18T08:03:15.533Z,5.37
2019-03-18T08:05:45.993Z,6.27
2019-03-18T08:08:16.496Z,4.07
2019-03-18T08:10:46.955Z,5.50
2019-03-18T08:13:17.458Z,5.97
2019-03-18T08:15:47.986Z,3.93
2019-03-18T08:18:19.499Z,8.30
2019-03-18T08:20:49.993Z,4.40
2019-03-18T08:23:20.559Z,4.23
2019-03-18T08:25:51.067Z,4.10
2019-03-18T08:28:21.605Z,4.77
2019-03-18T08:30:52.293Z,4.03
2019-03-18T08:33:22.808Z,5.00
2019-03-18T08:35:53.243Z,5.10
2019-03-18T08:38:24.074Z,22.93
2019-03-18T08:40:55.753Z,4.93
2019-03-18T08:43:26.407Z,10.07
2019-03-18T08:45:56.929Z,7.58
2019-03-18T08:48:27.901Z,9.00
2019-03-18T08:50:58.477Z,10.10
2019-03-18T08:53:29.097Z,6.67
2019-03-18T08:55:59.747Z,7.40
2019-03-18T08:58:30.330Z,8.87
2019-03-18T09:01:00.822Z,5.77
2019-03-18T09:03:31.304Z,3.73
2019-03-18T09:06:01.990Z,4.40
2019-03-18T09:08:32.430Z,6.27
2019-03-18T09:11:02.935Z,7.10
2019-03-18T09:13:33.490Z,4.27
2019-03-18T09:16:03.982Z,3.20
2019-03-18T09:18:34.597Z,3.83
2019-03-18T09:21:12.726Z,2.50
2019-03-18T09:23:43.115Z,5.00
2019-03-18T09:26:13.620Z,3.23
2019-03-18T09:28:44.081Z,3.83
2019-03-18T09:31:15.674Z,3.57
2019-03-18T09:33:46.243Z,20.30
2019-03-18T09:36:16.755Z,13.70
2019-03-18T09:38:47.243Z,13.10
2019-03-18T09:41:18.677Z,5.07
2019-03-18T09:43:49.182Z,7.90
2019-03-18T09:46:19.609Z,3.10
2019-03-18T09:48:50.156Z,10.20
2019-03-18T09:51:20.729Z,1.83
2019-03-18T09:53:56.308Z,8.47
2019-03-18T09:56:26.801Z,1.13
2019-03-18T09:58:57.346Z,2.77
2019-03-18T10:01:27.782Z,8.50
2019-03-18T10:03:58.243Z,1.10
2019-03-18T10:06:28.700Z,5.30
2019-03-18T10:08:59.407Z,1.93
2019-03-18T10:11:29.912Z,5.93
2019-03-18T10:14:00.324Z,2.87
2019-03-18T10:16:30.851Z,2.97
2019-03-18T10:19:01.301Z,3.07
2019-03-18T10:21:31.895Z,4.60
2019-03-18T10:24:02.711Z,3.07
2019-03-18T10:26:33.226Z,9.73
2019-03-18T10:29:04.017Z,7.83
2019-03-18T10:31:34.512Z,19.00
2019-03-18T10:34:05.070Z,6.90
2019-03-18T10:36:35.573Z,5.23
2019-03-18T10:39:08.049Z,7.33
2019-03-18T10:41:38.512Z,3.43
2019-03-18T10:44:09.000Z,5.37
2019-03-18T10:46:39.516Z,7.80
2019-03-18T10:49:10.034Z,14.93
2019-03-18T10:51:40.639Z,12.50
2019-03-18T10:54:11.050Z,6.93
2019-03-18T10:56:41.800Z,5.27
2019-03-18T10:59:12.347Z,5.10
2019-03-18T11:01:42.823Z,5.07
2019-03-18T11:04:13.432Z,6.63
2019-03-18T11:06:44.033Z,12.50
2019-03-18T11:09:14.901Z,4.93
2019-03-18T11:11:45.429Z,14.00
2019-03-18T11:14:16.097Z,6.53
2019-03-18T11:16:46.559Z,12.70
2019-03-18T11:19:17.163Z,13.40
2019-03-18T11:21:48.643Z,7.33
2019-03-18T11:24:19.201Z,9.83
2019-03-18T11:26:49.968Z,9.00
2019-03-18T11:29:21.633Z,12.40
2019-03-18T11:31:52.304Z,8.13
2019-03-18T11:34:22.742Z,6.10
2019-03-18T11:36:53.267Z,9.40
2019-03-18T11:39:24.795Z,9.63
2019-03-18T11:41:55.235Z,12.50
2019-03-18T11:44:25.683Z,8.53
2019-03-18T11:46:56.152Z,6.07
2019-03-18T11:49:38.785Z,10.37
2019-03-18T11:51:59.180Z,10.93
2019-03-18T11:54:30.074Z,6.53
2019-03-18T11:57:00.857Z,9.20
2019-03-18T11:59:31.347Z,32.40
2019-03-18T12:02:01.842Z,14.60
2019-03-18T12:04:32.917Z,12.03
2019-03-18T12:07:03.708Z,11.33
2019-03-18T12:09:34.618Z,20.57
2019-03-18T12:12:05.492Z,13.77
2019-03-18T12:14:36.054Z,8.83
2019-03-18T12:17:06.618Z,6.23
2019-03-18T12:19:37.205Z,11.90
2019-03-18T12:22:07.908Z,10.23
2019-03-18T12:24:38.466Z,14.37
2019-03-18T12:27:09.108Z,5.87
2019-03-18T12:29:39.611Z,7.00
2019-03-18T12:32:10.109Z,6.20
2019-03-18T12:34:40.656Z,5.23
2019-03-18T12:37:11.434Z,11.17
2019-03-18T12:39:41.939Z,20.07
2019-03-18T12:42:12.458Z,9.47
2019-03-18T12:44:43.164Z,8.40
2019-03-18T12:47:13.791Z,13.50
2019-03-18T12:49:44.487Z,9.43
2019-03-18T12:52:15.076Z,38.47
2019-03-18T12:54:45.606Z,13.00
2019-03-18T12:57:16.111Z,8.80
2019-03-18T12:59:46.648Z,10.33
2019-03-18T13:02:18.135Z,14.63
2019-03-18T13:04:48.665Z,9.70
2019-03-18T13:07:19.245Z,11.43
2019-03-18T13:09:49.835Z,12.57
2019-03-18T13:12:20.593Z,5.17
2019-03-18T13:14:51.135Z,9.47
2019-03-18T13:17:21.637Z,8.87
2019-03-18T13:19:52.047Z,12.90
2019-03-18T13:22:22.598Z,5.53
2019-03-18T13:24:53.189Z,7.40
2019-03-18T13:27:23.697Z,5.97
2019-03-18T13:29:54.167Z,3.80
2019-03-18T13:32:24.634Z,3.90
2019-03-18T13:34:55.227Z,5.63
2019-03-18T13:37:25.727Z,8.57
2019-03-18T13:39:56.170Z,9.57
2019-03-18T13:42:26.640Z,5.70
2019-03-18T13:44:57.337Z,3.77
2019-03-18T13:47:27.908Z,4.90
2019-03-18T13:49:58.493Z,7.00
2019-03-18T13:52:28.998Z,7.00
2019-03-18T13:54:59.570Z,10.70
2019-03-18T13:57:30.402Z,11.40
2019-03-18T14:00:00.974Z,6.30
2019-03-18T14:02:31.620Z,9.97
2019-03-18T14:05:02.202Z,24.00
2019-03-18T14:07:32.755Z,7.10
2019-03-18T14:10:03.402Z,4.90
2019-03-18T14:12:36.995Z,28.90
2019-03-18T14:15:08.234Z,31.57
2019-03-18T14:17:40.116Z,6.87
2019-03-18T14:20:11.701Z,4.97
2019-03-18T14:22:42.281Z,9.07
2019-03-18T14:25:12.832Z,23.87
2019-03-18T14:27:43.415Z,8.80
2019-03-18T14:30:15.415Z,8.37
2019-03-18T14:32:45.954Z,14.93
2019-03-18T14:35:16.510Z,9.73
2019-03-18T14:37:47.076Z,4.20
2019-03-18T14:40:17.575Z,13.97
2019-03-18T14:42:48.079Z,8.90
2019-03-18T14:45:18.860Z,15.43
2019-03-18T14:47:49.636Z,12.77
2019-03-18T14:50:20.272Z,8.37
2019-03-18T14:52:50.986Z,19.47
2019-03-18T14:55:21.594Z,15.10
2019-03-18T14:57:52.331Z,3.00
2019-03-18T15:00:22.962Z,11.07
2019-03-18T15:02:53.709Z,6.13
2019-03-18T15:05:24.153Z,6.67
2019-03-18T15:07:54.608Z,7.20
2019-03-18T15:10:25.221Z,31.00
2019-03-18T15:12:55.961Z,6.90
2019-03-18T15:15:26.536Z,5.00
2019-03-18T15:17:57.127Z,6.50
2019-03-18T15:20:27.752Z,4.40
2019-03-18T15:22:58.359Z,9.93
2019-03-18T15:25:28.895Z,13.37
2019-03-18T15:27:59.440Z,9.03
2019-03-18T15:30:29.861Z,8.40
2019-03-18T15:33:00.669Z,16.83
2019-03-18T15:35:31.229Z,7.57
2019-03-18T15:38:01.937Z,5.10
2019-03-18T15:40:32.407Z,8.23
2019-03-18T15:43:03.014Z,7.77
2019-03-18T15:45:33.504Z,9.67
2019-03-18T15:48:03.956Z,21.07
2019-03-18T15:50:34.516Z,7.50
2019-03-18T15:53:05.005Z,9.00
2019-03-18T15:55:35.589Z,9.10
2019-03-18T15:58:06.196Z,7.00
2019-03-18T16:00:36.706Z,6.70
2019-03-18T16:03:09.467Z,13.40
2019-03-18T16:05:40.029Z,30.27
2019-03-18T16:08:10.620Z,6.50
2019-03-18T16:10:41.146Z,19.90
2019-03-18T16:13:11.770Z,17.17
2019-03-18T16:15:42.287Z,10.50
2019-03-18T16:18:12.772Z,10.37
2019-03-18T16:20:43.434Z,18.70
2019-03-18T16:23:13.993Z,15.63
2019-03-18T16:25:44.447Z,13.80
2019-03-18T16:28:15.034Z,15.50
2019-03-18T16:30:45.522Z,16.33
2019-03-18T16:33:15.960Z,12.70
2019-03-18T16:35:46.625Z,11.00
2019-03-18T16:38:17.134Z,8.90
2019-03-18T16:40:47.669Z,14.03
2019-03-18T16:43:18.536Z,16.83
2019-03-18T16:45:49.366Z,12.03
2019-03-18T16:48:19.885Z,12.83
2019-03-18T16:50:50.455Z,15.47
2019-03-18T16:53:21.186Z,20.60
2019-03-18T16:55:51.690Z,18.03
2019-03-18T16:58:22.521Z,18.93
2019-03-18T17:00:53.055Z,17.33
2019-03-18T17:03:23.597Z,19.17
2019-03-18T17:05:55.110Z,16.90
2019-03-18T17:08:25.607Z,22.23
2019-03-18T17:10:56.149Z,15.53
2019-03-18T17:13:26.625Z,19.40
2019-03-18T17:15:57.469Z,16.80
2019-03-18T17:18:28.000Z,24.80
2019-03-18T17:20:58.663Z,20.83
2019-03-18T17:23:29.270Z,20.87
2019-03-18T17:25:59.921Z,19.40
2019-03-18T17:28:30.456Z,25.20
2019-03-18T17:31:01.880Z,21.43
2019-03-18T17:33:32.388Z,20.73
2019-03-18T17:36:03.995Z,23.90
2019-03-18T17:38:34.645Z,19.10
2019-03-18T17:41:05.421Z,32.07
2019-03-18T17:43:35.922Z,31.60
2019-03-18T17:46:06.663Z,32.63
2019-03-18T17:48:39.529Z,27.10
2019-03-18T17:51:10.326Z,29.10
2019-03-18T17:53:40.890Z,26.03
2019-03-18T17:56:11.624Z,25.10
2019-03-18T17:58:42.214Z,32.27
2019-03-18T18:01:13.121Z,30.20
2019-03-18T18:03:43.618Z,23.93
2019-03-18T18:06:14.246Z,20.63
2019-03-18T18:08:44.755Z,25.60
2019-03-18T18:11:15.358Z,40.97
2019-03-18T18:13:45.932Z,27.27
2019-03-18T18:16:16.643Z,29.93
2019-03-18T18:18:47.271Z,33.53
2019-03-18T18:21:17.895Z,28.27
2019-03-18T18:23:49.615Z,27.43
2019-03-18T18:26:20.431Z,40.80
2019-03-18T18:28:50.991Z,33.93
2019-03-18T18:31:21.568Z,34.33
2019-03-18T18:33:52.078Z,35.73
2019-03-18T18:36:25.149Z,37.57
2019-03-18T18:38:54.744Z,41.50
2019-03-18T18:41:25.336Z,36.90
2019-03-18T18:43:55.864Z,36.43
2019-03-18T18:46:26.428Z,43.30
2019-03-18T18:48:56.974Z,36.63
2019-03-18T18:51:31.401Z,45.77
2019-03-18T18:54:02.009Z,32.13
2019-03-18T18:56:32.609Z,39.97
2019-03-18T18:59:03.145Z,34.13
2019-03-18T19:01:36.099Z,40.07
2019-03-18T19:04:06.854Z,38.77
2019-03-18T19:06:37.680Z,36.97
2019-03-18T19:09:08.630Z,42.47
2019-03-18T19:11:39.256Z,35.73
2019-03-18T19:14:09.899Z,29.00
2019-03-18T19:16:40.385Z,40.47
2019-03-18T19:19:11.951Z,36.20
2019-03-18T19:21:42.526Z,42.67
2019-03-18T19:24:13.065Z,39.50
2019-03-18T19:26:43.536Z,42.70
2019-03-18T19:29:14.251Z,40.37
2019-03-18T19:31:45.936Z,31.20
2019-03-18T19:34:16.610Z,41.03
2019-03-18T19:36:47.196Z,37.20
2019-03-18T19:39:17.801Z,35.90
2019-03-18T19:41:48.451Z,32.80
2019-03-18T19:44:19.141Z,36.03
2019-03-18T19:46:49.733Z,32.73
2019-03-18T19:49:20.292Z,31.63
2019-03-18T19:51:51.178Z,35.40
2019-03-18T19:54:21.828Z,36.50
2019-03-18T19:56:52.417Z,35.27
2019-03-18T19:59:23.118Z,33.07
2019-03-18T20:01:53.766Z,38.13
2019-03-18T20:04:24.412Z,33.60
2019-03-18T20:06:55.078Z,40.03
2019-03-18T20:09:25.666Z,40.43
2019-03-18T20:11:56.259Z,38.57
2019-03-18T20:14:29.339Z,37.67
2019-03-18T20:16:59.974Z,35.20
2019-03-18T20:19:30.549Z,34.00
2019-03-18T20:22:01.011Z,40.63
2019-03-18T20:24:31.614Z,39.90
2019-03-18T20:27:03.544Z,45.07
2019-03-18T20:29:34.119Z,39.63
2019-03-18T20:32:04.746Z,41.33
2019-03-18T20:34:35.358Z,36.93
2019-03-18T20:37:05.901Z,47.67
2019-03-18T20:39:39.009Z,48.90
2019-03-18T20:42:11.647Z,50.93
2019-03-18T20:44:42.499Z,51.90
2019-03-18T20:47:13.049Z,53.73
2019-03-18T20:49:43.671Z,45.37
2019-03-18T20:52:16.913Z,47.40
2019-03-18T20:54:48.467Z,56.17
2019-03-18T20:57:19.305Z,52.23
2019-03-18T20:59:49.842Z,53.67
2019-03-18T21:02:20.382Z,56.83
2019-03-18T21:04:51.023Z,58.93
2019-03-18T21:07:22.727Z,62.60
2019-03-18T21:09:53.355Z,52.47
2019-03-18T21:12:24.048Z,47.87
2019-03-18T21:14:54.753Z,55.13
2019-03-18T21:17:25.311Z,71.97
2019-03-18T21:19:56.060Z,60.80
2019-03-18T21:22:26.625Z,55.20
2019-03-18T21:24:57.951Z,58.27
2019-03-18T21:27:28.713Z,60.03
2019-03-18T21:29:59.674Z,56.87
2019-03-18T21:32:30.158Z,64.40
2019-03-18T21:35:00.765Z,60.83
2019-03-18T21:37:31.432Z,56.83
2019-03-18T21:40:02.342Z,65.40
2019-03-18T21:42:32.850Z,56.77
2019-03-18T21:45:03.403Z,58.13
2019-03-18T21:47:33.938Z,66.30
2019-03-18T21:50:04.723Z,64.67
2019-03-18T21:52:35.173Z,59.60
2019-03-18T21:55:06.159Z,57.87
2019-03-18T21:57:36.678Z,61.60
2019-03-18T22:00:07.582Z,61.30
2019-03-18T22:02:39.394Z,70.43
2019-03-18T22:05:10.161Z,63.80
2019-03-18T22:07:40.672Z,67.90
2019-03-18T22:10:12.626Z,71.97
2019-03-18T22:12:43.109Z,63.83
2019-03-18T22:15:13.859Z,71.00
2019-03-18T22:17:46.599Z,64.20
2019-03-18T22:20:17.202Z,71.57
2019-03-18T22:22:47.684Z,63.47
2019-03-18T22:25:20.556Z,66.17
2019-03-18T22:27:51.004Z,69.07
2019-03-18T22:30:23.226Z,61.97
2019-03-18T22:32:53.673Z,71.43
2019-03-18T22:35:24.564Z,63.30
2019-03-18T22:37:54.973Z,55.47
2019-03-18T22:40:25.731Z,55.87
2019-03-18T22:42:56.236Z,50.67
2019-03-18T22:45:27.033Z,66.47
2019-03-18T22:47:57.458Z,50.13
2019-03-18T22:50:28.106Z,59.83
2019-03-18T22:52:58.744Z,59.97
2019-03-18T22:55:29.626Z,39.90
2019-03-18T22:58:00.185Z,46.67
2019-03-18T23:00:47.262Z,52.17
2019-03-18T23:03:18.084Z,54.33
2019-03-18T23:05:48.571Z,48.40
2019-03-18T23:08:21.501Z,46.90
2019-03-18T23:10:52.123Z,41.17
2019-03-18T23:13:22.717Z,43.50
2019-03-18T23:15:55.952Z,50.23
2019-03-18T23:18:26.595Z,49.00
2019-03-18T23:20:57.364Z,45.80
2019-03-18T23:23:28.018Z,47.63
2019-03-18T23:25:58.566Z,41.43
2019-03-18T23:28:29.153Z,49.73
2019-03-18T23:30:59.594Z,46.17
2019-03-18T23:33:30.324Z,47.50
2019-03-18T23:36:01.035Z,46.20
2019-03-18T23:38:31.745Z,56.53
2019-03-18T23:41:02.282Z,54.20
2019-03-18T23:43:33.930Z,49.77
2019-03-18T23:46:04.371Z,53.17
2019-03-18T23:48:34.957Z,47.77
2019-03-18T23:51:05.578Z,48.67
2019-03-18T23:53:36.122Z,56.10
2019-03-18T23:56:06.598Z,47.40
2019-03-18T23:58:37.111Z,55.73
